首页
METAR-TAF:

METAR-TAF

机场 :

赫尔辛基-万塔机场

赫尔辛基, 芬兰

纬度: 60-19N, 经度: 024-58E, 海拔: 51米

当前天气观测

该预报发布于24分钟前的08:20 UTC
风速6节,风向西,在西转西南西北之间变化
温度 18°C
湿度 52%
气压 1011 hPa
能见度10公里或以上
散云层高于4300英尺

METAR: EFHK 140820Z 28006KT 250V310 9999 SCT043 18/08 Q1011 NOSIG

时间: 11:44 (08:44 UTC)

预报

该预报发布于3小时和14分钟前的05:30 UTC
预报有效从14日的 06点(UTC)到 15日的 06点(UTC)
风速5节,风向西转西南
能见度10公里或以上
1500米以下无云,无积雨云
几率 40%
从 14日的 11点(UTC)到 14日的 13点(UTC)
少量云层高于4000英尺, 塔状积云.

TAF: EFHK 140530Z 1406/1506 25005KT CAVOK PROB40 1411/1413 FEW040TCU

超过4000个机场的气象观测和天气预报(METAR&TAF报告)。

可查询的气象台以黄色和红色小点在地图上表示。

将鼠标移到小点上方,可查看气象台名称。

然后点击查看天气观测和预报。

如需切换地图:点击带黑十字的绿色按钮放大地图;点击带横线的绿色按钮缩小地图;或者点击绿色箭头查看邻近地区的地图。


METAR-TAF: